< < Back
Terminal Aerodrome Forecast


Current Version              Previous Versions:   1  2  3  4  5  6  7  8  9  

Terminal Aerodrome Forecast

733
FTUS44 KMOB 012300 RRA
TAFPNS
TAF
KPNS 012354Z 0200/0224 VRB03KT P6SM OVC008
     FM020200 08004KT 2SM -DZ BR OVC003
     FM020500 08004KT 1/2SM FG VV002
     FM021800 15005KT P6SM OVC009=



Latest METAR

471
SAUS70 KWBC 021600 RRE
MTRPNS
METAR KPNS 021553Z 08005KT 2SM BR OVC004 17/16 A3031 RMK AO2 SLP267
T01670156


USA.gov is the U.S. government's official web portal to all federal, state and local government web resources and services.